Time;durP1;ratioP1;P1;durP2;ratioP2;P2;SDS_P1;SDS_P2;PMS_P1;PMS_P2;Temp;Humidity;BMP_temperature;BMP_pressure;BME280_temperature;BME280_humidity;BME280_pressure;Samples;Min_cycle;Max_cycle;Signal;HPM_P1;HPM_P2
2023/07/22 00:00:46;;;;;;;0.90;0.40;;;;;;;15.15;100.00;99753.02;105170;1257;70922;-49
2023/07/22 00:03:13;;;;;;;0.50;0.50;;;;;;;15.14;100.00;99750.77;105061;1257;60375;-46
2023/07/22 00:05:41;;;;;;;2.50;0.50;;;;;;;15.13;100.00;99741.77;107195;1262;59954;-48
2023/07/22 00:08:08;;;;;;;2.60;0.50;;;;;;;15.09;100.00;99739.59;104995;1265;73068;-49
2023/07/22 00:10:40;;;;;;;0.60;0.50;;;;;;;14.99;100.00;99738.02;105289;1255;68036;-47
2023/07/22 00:13:08;;;;;;;0.90;0.60;;;;;;;14.94;100.00;99733.87;105182;1257;72006;-48
2023/07/22 00:15:35;;;;;;;0.70;0.50;;;;;;;14.92;100.00;99732.59;104987;1257;61673;-48
2023/07/22 00:18:02;;;;;;;0.70;0.40;;;;;;;14.90;100.00;99723.48;105075;1257;59648;-48
2023/07/22 00:20:30;;;;;;;0.80;0.50;;;;;;;14.89;100.00;99721.02;104864;1262;73023;-48
2023/07/22 00:22:57;;;;;;;0.60;0.50;;;;;;;14.89;100.00;99718.69;104920;1259;67917;-48
2023/07/22 00:25:25;;;;;;;0.70;0.50;;;;;;;14.89;100.00;99723.38;104980;1260;72886;-48
2023/07/22 00:27:52;;;;;;;0.60;0.40;;;;;;;14.86;100.00;99715.62;104948;1259;60495;-48
2023/07/22 00:30:19;;;;;;;2.30;0.50;;;;;;;14.84;100.00;99713.97;104868;1257;60546;-48
2023/07/22 00:32:47;;;;;;;1.00;0.60;;;;;;;14.83;100.00;99712.91;104998;1262;73395;-48
2023/07/22 00:35:14;;;;;;;2.80;0.60;;;;;;;14.84;100.00;99706.56;104874;1257;67484;-50
2023/07/22 00:37:41;;;;;;;0.80;0.40;;;;;;;14.85;100.00;99708.29;104963;1262;73264;-51
2023/07/22 00:40:11;;;;;;;1.00;0.70;;;;;;;14.87;100.00;99708.00;104997;1258;60567;-50
2023/07/22 00:42:39;;;;;;;1.60;0.60;;;;;;;14.87;100.00;99704.70;108715;1255;59993;-48
2023/07/22 00:45:07;;;;;;;0.90;0.70;;;;;;;14.88;100.00;99701.98;108817;1257;72593;-47
2023/07/22 00:47:35;;;;;;;3.20;0.60;;;;;;;14.90;100.00;99699.48;108838;1257;67775;-47
2023/07/22 00:50:03;;;;;;;3.10;0.60;;;;;;;14.92;100.00;99696.45;108787;1257;71268;-48
2023/07/22 00:52:30;;;;;;;2.30;0.60;;;;;;;14.95;100.00;99693.56;108790;1259;60368;-48
2023/07/22 00:54:57;;;;;;;1.00;0.60;;;;;;;14.98;100.00;99693.11;108863;1257;60131;-48
2023/07/22 00:57:27;;;;;;;2.60;0.60;;;;;;;15.01;100.00;99693.67;108687;1257;73911;-48
2023/07/22 00:59:54;;;;;;;2.50;0.60;;;;;;;15.03;100.00;99695.88;108871;1260;65356;-48
2023/07/22 01:02:22;;;;;;;0.80;0.70;;;;;;;15.05;100.00;99690.35;108699;1257;71833;-48
2023/07/22 01:04:50;;;;;;;1.60;0.70;;;;;;;15.04;100.00;99688.91;108504;1260;61641;-48
2023/07/22 01:07:17;;;;;;;1.20;0.70;;;;;;;15.06;100.00;99688.46;108596;1257;58727;-49
2023/07/22 01:09:44;;;;;;;3.00;0.60;;;;;;;15.05;100.00;99687.92;108879;1257;72963;-48
2023/07/22 01:12:13;;;;;;;1.20;0.60;;;;;;;15.04;100.00;99685.90;108720;1257;66334;-47
2023/07/22 01:14:41;;;;;;;1.20;0.50;;;;;;;15.01;100.00;99687.66;108902;1256;72880;-48
2023/07/22 01:17:09;;;;;;;0.70;0.50;;;;;;;15.00;100.00;99687.41;108759;1257;60463;-49
2023/07/22 01:19:37;;;;;;;1.50;0.60;;;;;;;14.98;100.00;99686.46;108690;1257;59930;-48
2023/07/22 01:22:08;;;;;;;2.10;0.60;;;;;;;14.99;100.00;99689.06;105311;1262;73769;-50
2023/07/22 01:24:35;;;;;;;1.90;0.60;;;;;;;15.02;100.00;99693.41;105060;1259;66981;-48
2023/07/22 01:27:08;;;;;;;1.00;0.60;;;;;;;15.06;100.00;99698.73;104975;1260;72416;-47
2023/07/22 01:29:35;;;;;;;2.10;0.60;;;;;;;15.11;100.00;99697.69;105207;1258;63094;-47
2023/07/22 01:32:03;;;;;;;3.00;0.60;;;;;;;15.11;100.00;99703.27;104726;1260;60344;-47
2023/07/22 01:34:31;;;;;;;2.90;0.70;;;;;;;15.08;100.00;99706.16;104788;1260;72798;-47
2023/07/22 01:36:59;;;;;;;3.90;0.70;;;;;;;15.04;100.00;99707.88;105253;1257;67862;-48
2023/07/22 01:39:27;;;;;;;2.30;0.60;;;;;;;15.00;100.00;99707.84;105211;1257;72872;-48
2023/07/22 01:41:55;;;;;;;0.70;0.70;;;;;;;14.96;100.00;99706.31;105496;1257;60996;-50
2023/07/22 01:44:22;;;;;;;2.30;0.60;;;;;;;14.94;100.00;99703.92;105084;1258;60014;-47
2023/07/22 01:46:50;;;;;;;0.60;0.50;;;;;;;14.95;100.00;99704.21;104934;1260;73322;-48
2023/07/22 01:49:17;;;;;;;0.90;0.70;;;;;;;14.97;100.00;99702.43;105090;1257;68666;-47
2023/07/22 01:51:45;;;;;;;2.20;0.60;;;;;;;15.00;100.00;99700.20;105739;1262;72299;-48
2023/07/22 01:54:13;;;;;;;0.90;0.70;;;;;;;15.03;100.00;99699.49;105116;1257;61824;-50
2023/07/22 01:56:40;;;;;;;0.70;0.60;;;;;;;15.06;100.00;99701.09;105166;1260;60305;-47
2023/07/22 01:59:08;;;;;;;0.80;0.70;;;;;;;15.09;100.00;99700.52;105705;1257;72679;-49
2023/07/22 02:01:36;;;;;;;2.20;0.70;;;;;;;15.12;100.00;99699.05;105278;1260;67536;-47
2023/07/22 02:04:03;;;;;;;0.70;0.60;;;;;;;15.14;100.00;99697.63;105023;1261;71417;-48
2023/07/22 02:06:31;;;;;;;1.20;0.70;;;;;;;15.16;100.00;99696.27;105304;1257;63688;-46
2023/07/22 02:08:59;;;;;;;3.60;0.70;;;;;;;15.18;100.00;99702.11;106767;1256;59894;-47
2023/07/22 02:11:26;;;;;;;2.00;0.70;;;;;;;15.20;100.00;99702.89;105236;1259;73852;-48
2023/07/22 02:13:53;;;;;;;1.60;0.70;;;;;;;15.22;100.00;99704.68;105301;1257;68141;-46
2023/07/22 02:16:21;;;;;;;1.50;0.70;;;;;;;15.25;100.00;99705.42;105252;1260;72773;-47
2023/07/22 02:18:48;;;;;;;1.70;0.60;;;;;;;15.27;100.00;99705.98;105555;1257;62134;-47
2023/07/22 02:21:16;;;;;;;0.60;0.50;;;;;;;15.30;100.00;99714.85;105246;1258;60591;-47
2023/07/22 02:23:43;;;;;;;5.20;0.80;;;;;;;15.32;100.00;99711.58;105261;1262;72605;-46
2023/07/22 02:26:10;;;;;;;0.70;0.60;;;;;;;15.34;100.00;99709.27;105263;1259;66453;-49
2023/07/22 02:28:38;;;;;;;2.20;0.60;;;;;;;15.37;100.00;99708.52;105731;1257;71466;-48
2023/07/22 02:31:06;;;;;;;1.00;0.70;;;;;;;15.40;100.00;99708.37;105343;1257;61657;-50
2023/07/22 02:33:34;;;;;;;2.90;0.70;;;;;;;15.43;100.00;99707.57;106087;1254;59946;-49
2023/07/22 02:36:02;;;;;;;1.70;0.60;;;;;;;15.47;100.00;99701.31;105471;1256;72638;-47
2023/07/22 02:38:30;;;;;;;2.10;0.60;;;;;;;15.53;100.00;99705.50;105172;1260;66336;-49
2023/07/22 02:41:06;;;;;;;0.80;0.70;;;;;;;15.59;100.00;99704.92;105361;1260;72586;-48
2023/07/22 02:43:37;;;;;;;1.60;0.50;;;;;;;15.64;100.00;99711.03;105566;1258;61631;-49
2023/07/22 02:46:06;;;;;;;2.60;0.60;;;;;;;15.70;100.00;99717.52;105227;1257;60625;-50
2023/07/22 02:48:34;;;;;;;2.40;0.60;;;;;;;15.75;100.00;99721.48;105663;1259;73795;-49
2023/07/22 02:51:05;;;;;;;1.90;0.60;;;;;;;15.78;100.00;99720.20;105153;1259;67652;-50
2023/07/22 02:53:33;;;;;;;1.40;0.90;;;;;;;15.81;100.00;99719.08;105232;1256;72671;-49
2023/07/22 02:56:01;;;;;;;1.90;0.60;;;;;;;15.84;100.00;99719.72;105153;1259;60699;-49
2023/07/22 02:58:28;;;;;;;5.00;0.70;;;;;;;15.88;100.00;99713.13;105231;1259;60763;-49
2023/07/22 03:00:57;;;;;;;5.60;0.90;;;;;;;15.93;100.00;99714.97;105246;1259;72793;-50
2023/07/22 03:03:25;;;;;;;7.60;1.00;;;;;;;15.97;100.00;99711.42;105176;1261;67866;-47
2023/07/22 03:05:52;;;;;;;1.70;0.60;;;;;;;16.02;100.00;99704.33;105721;1255;71290;-47
2023/07/22 03:08:20;;;;;;;2.50;0.60;;;;;;;16.07;100.00;99701.12;105243;1260;60981;-50
2023/07/22 03:10:48;;;;;;;3.90;0.80;;;;;;;16.12;100.00;99700.39;105249;1259;60488;-49
2023/07/22 03:13:16;;;;;;;3.20;1.10;;;;;;;16.16;100.00;99700.41;105235;1259;72524;-49
2023/07/22 03:15:43;;;;;;;1.10;0.60;;;;;;;16.21;100.00;99696.13;105223;1256;67593;-50
2023/07/22 03:18:11;;;;;;;2.50;0.50;;;;;;;16.25;100.00;99688.02;105973;1257;71414;-49
2023/07/22 03:20:38;;;;;;;2.00;0.50;;;;;;;16.29;100.00;99684.65;105409;1260;61676;-48
2023/07/22 03:23:06;;;;;;;0.70;0.40;;;;;;;16.34;100.00;99680.52;105207;1261;60594;-49
2023/07/22 03:25:34;;;;;;;1.90;0.60;;;;;;;16.38;100.00;99676.21;105207;1257;72559;-50
2023/07/22 03:28:05;;;;;;;0.50;0.50;;;;;;;16.42;100.00;99678.27;105199;1259;66642;-46
2023/07/22 03:30:33;;;;;;;0.70;0.50;;;;;;;16.46;100.00;99678.86;105247;1259;72174;-49
2023/07/22 03:33:00;;;;;;;0.70;0.60;;;;;;;16.50;100.00;99683.79;104654;1257;60522;-48
2023/07/22 03:35:28;;;;;;;1.10;0.60;;;;;;;16.54;100.00;99680.47;105053;1257;60479;-48
2023/07/22 03:37:55;;;;;;;0.80;0.60;;;;;;;16.56;100.00;99681.19;105073;1254;72622;-46
2023/07/22 03:40:28;;;;;;;0.60;0.50;;;;;;;16.59;100.00;99678.98;105264;1260;67504;-48
2023/07/22 03:43:00;;;;;;;2.00;0.50;;;;;;;16.62;100.00;99676.98;105272;1259;72790;-51
2023/07/22 03:45:28;;;;;;;0.50;0.50;;;;;;;16.64;100.00;99684.61;105227;1257;60892;-47
2023/07/22 03:47:59;;;;;;;2.80;0.50;;;;;;;16.67;100.00;99680.77;105210;1255;60501;-48
2023/07/22 03:50:27;;;;;;;0.60;0.40;;;;;;;16.71;100.00;99683.95;109035;1255;72593;-48
2023/07/22 03:52:55;;;;;;;0.50;0.40;;;;;;;16.74;100.00;99682.45;108988;1257;66599;-47
2023/07/22 03:55:22;;;;;;;0.50;0.50;;;;;;;16.77;100.00;99681.10;109033;1256;72861;-50
2023/07/22 03:57:49;;;;;;;0.80;0.60;;;;;;;16.81;100.00;99678.46;108951;1255;60388;-48
2023/07/22 04:00:17;;;;;;;2.10;0.50;;;;;;;16.86;100.00;99678.11;108889;1254;58801;-49
2023/07/22 04:02:44;;;;;;;0.90;0.60;;;;;;;16.90;100.00;99675.64;108917;1257;73746;-49
2023/07/22 04:05:12;;;;;;;2.50;0.60;;;;;;;16.94;100.00;99675.28;109082;1254;66765;-49
2023/07/22 04:07:39;;;;;;;0.70;0.50;;;;;;;16.99;100.00;99684.52;108771;1254;72483;-49
2023/07/22 04:10:07;;;;;;;3.70;0.50;;;;;;;17.05;100.00;99687.17;108991;1259;61586;-49
2023/07/22 04:12:34;;;;;;;1.40;0.60;;;;;;;17.09;100.00;99687.55;108781;1257;58358;-50
2023/07/22 04:15:03;;;;;;;3.60;0.60;;;;;;;17.14;100.00;99681.94;108866;1255;73785;-47
2023/07/22 04:17:31;;;;;;;11.00;0.70;;;;;;;17.20;100.00;99687.09;108811;1259;68760;-49
2023/07/22 04:19:58;;;;;;;1.60;0.70;;;;;;;17.25;100.00;99689.43;108857;1259;72703;-48
2023/07/22 04:22:26;;;;;;;2.50;0.80;;;;;;;17.29;100.00;99684.55;108708;1261;58940;-49
2023/07/22 04:24:54;;;;;;;1.00;0.80;;;;;;;17.32;100.00;99690.13;108890;1258;60166;-49
2023/07/22 04:27:21;;;;;;;1.00;0.70;;;;;;;17.35;100.00;99691.55;108733;1255;72959;-48
2023/07/22 04:29:48;;;;;;;1.20;0.60;;;;;;;17.36;100.00;99690.00;105262;1263;68227;-48
2023/07/22 04:32:16;;;;;;;0.70;0.60;;;;;;;17.37;100.00;99684.64;105274;1259;72464;-47
2023/07/22 04:34:43;;;;;;;1.30;0.60;;;;;;;17.38;100.00;99679.13;105368;1264;60549;-47
2023/07/22 04:37:11;;;;;;;1.40;0.70;;;;;;;17.40;100.00;99676.67;105248;1260;61061;-48
2023/07/22 04:39:38;;;;;;;0.50;0.50;;;;;;;17.41;100.00;99677.27;105267;1259;73793;-46
2023/07/22 04:42:06;;;;;;;1.20;0.70;;;;;;;17.43;100.00;99678.59;105215;1259;66522;-48
2023/07/22 04:44:33;;;;;;;2.20;0.50;;;;;;;17.46;100.00;99687.92;105393;1263;72083;-48
2023/07/22 04:47:00;;;;;;;0.70;0.50;;;;;;;17.50;100.00;99688.23;105276;1263;61711;-48
2023/07/22 04:49:28;;;;;;;1.20;0.70;;;;;;;17.54;100.00;99685.92;105442;1254;60562;-50
2023/07/22 04:51:56;;;;;;;1.30;0.40;;;;;;;17.57;100.00;99681.17;105229;1258;73771;-50
2023/07/22 04:54:23;;;;;;;0.60;0.40;;;;;;;17.60;100.00;99682.66;105232;1260;67527;-49
2023/07/22 04:56:51;;;;;;;0.50;0.30;;;;;;;17.63;100.00;99685.19;105268;1260;72696;-47
2023/07/22 04:59:18;;;;;;;0.50;0.50;;;;;;;17.66;100.00;99689.12;105213;1260;60565;-49
2023/07/22 05:01:46;;;;;;;0.80;0.40;;;;;;;17.69;100.00;99692.38;105290;1266;60511;-49
2023/07/22 05:04:13;;;;;;;1.50;0.40;;;;;;;17.70;100.00;99689.89;105172;1253;72695;-50
2023/07/22 05:06:41;;;;;;;0.90;0.40;;;;;;;17.71;100.00;99684.37;105201;1260;67897;-49
2023/07/22 05:09:08;;;;;;;0.60;0.50;;;;;;;17.72;100.00;99681.41;105229;1267;73085;-47
2023/07/22 05:11:35;;;;;;;0.70;0.40;;;;;;;17.72;100.00;99675.39;105221;1262;60524;-49
2023/07/22 05:14:03;;;;;;;0.60;0.40;;;;;;;17.73;100.00;99670.45;104883;1259;60447;-48
2023/07/22 05:16:30;;;;;;;0.70;0.30;;;;;;;17.74;100.00;99666.20;104847;1255;72638;-48
2023/07/22 05:18:58;;;;;;;1.70;0.40;;;;;;;17.75;100.00;99657.05;104694;1257;67508;-48
2023/07/22 05:21:26;;;;;;;0.50;0.50;;;;;;;17.75;100.00;99648.48;105005;1263;72576;-49
2023/07/22 05:23:53;;;;;;;0.50;0.40;;;;;;;17.75;100.00;99640.17;105281;1267;61631;-49
2023/07/22 05:26:20;;;;;;;1.80;0.40;;;;;;;17.75;100.00;99640.91;105250;1254;60328;-49
2023/07/22 05:28:48;;;;;;;0.80;0.50;;;;;;;17.76;100.00;99644.27;105253;1263;73896;-49
2023/07/22 05:31:16;;;;;;;0.30;0.30;;;;;;;17.76;100.00;99643.77;105309;1263;65936;-50
2023/07/22 05:33:43;;;;;;;1.60;0.50;;;;;;;17.74;100.00;99646.55;105652;1254;74820;-49
2023/07/22 05:36:10;;;;;;;0.40;0.40;;;;;;;17.73;100.00;99651.73;105330;1255;60449;-49
2023/07/22 05:38:38;;;;;;;1.30;0.50;;;;;;;17.71;100.00;99651.02;105150;1260;60357;-49
2023/07/22 05:41:05;;;;;;;0.30;0.30;;;;;;;17.69;100.00;99659.89;105345;1258;72555;-48
2023/07/22 05:43:32;;;;;;;1.00;0.40;;;;;;;17.66;100.00;99662.48;105059;1260;67705;-49
2023/07/22 05:46:00;;;;;;;0.60;0.40;;;;;;;17.65;100.00;99667.64;105257;1260;73715;-50
2023/07/22 05:48:27;;;;;;;0.80;0.50;;;;;;;17.63;100.00;99669.79;105211;1260;60685;-49
2023/07/22 05:50:55;;;;;;;2.10;0.50;;;;;;;17.61;100.00;99670.11;105147;1254;62403;-48
2023/07/22 05:53:22;;;;;;;0.40;0.40;;;;;;;17.60;100.00;99666.39;104994;1260;73977;-50
2023/07/22 05:55:49;;;;;;;0.50;0.40;;;;;;;17.59;100.00;99672.82;104905;1259;66420;-50
2023/07/22 05:58:17;;;;;;;0.50;0.50;;;;;;;17.58;100.00;99673.23;104869;1263;70075;-49
2023/07/22 06:00:46;;;;;;;2.00;0.40;;;;;;;17.57;100.00;99681.50;105933;1257;60567;-50
2023/07/22 06:03:13;;;;;;;0.50;0.40;;;;;;;17.56;100.00;99679.02;105042;1255;60457;-49
2023/07/22 06:05:41;;;;;;;0.30;0.30;;;;;;;17.55;100.00;99680.17;106945;1254;75946;-50
2023/07/22 06:08:09;;;;;;;0.40;0.40;;;;;;;17.55;100.00;99686.75;105262;1260;70238;-49
2023/07/22 06:10:37;;;;;;;0.50;0.40;;;;;;;17.54;100.00;99691.52;105244;1257;70481;-50
2023/07/22 06:13:05;;;;;;;0.40;0.30;;;;;;;17.54;100.00;99697.11;105857;1258;60838;-50
2023/07/22 06:15:32;;;;;;;1.00;0.40;;;;;;;17.55;100.00;99699.81;105238;1254;60553;-48
2023/07/22 06:18:00;;;;;;;0.40;0.40;;;;;;;17.55;100.00;99705.63;105245;1260;73769;-49
2023/07/22 06:20:28;;;;;;;1.20;0.40;;;;;;;17.54;100.00;99700.25;108822;1254;67244;-51
2023/07/22 06:22:55;;;;;;;0.70;0.40;;;;;;;17.54;100.00;99699.70;106112;1260;71673;-50
2023/07/22 06:25:23;;;;;;;0.80;0.40;;;;;;;17.52;100.00;99697.66;105237;1260;61672;-49
2023/07/22 06:27:51;;;;;;;1.60;0.50;;;;;;;17.51;100.00;99699.00;108444;1254;60508;-50
2023/07/22 06:30:18;;;;;;;1.90;0.50;;;;;;;17.50;100.00;99700.88;106111;1254;73910;-50
2023/07/22 06:32:45;;;;;;;0.80;0.40;;;;;;;17.50;100.00;99699.27;105202;1260;66111;-49
2023/07/22 06:35:13;;;;;;;1.10;0.50;;;;;;;17.51;100.00;99702.14;105237;1256;71139;-47
2023/07/22 06:37:40;;;;;;;0.90;0.60;;;;;;;17.51;100.00;99700.34;105380;1259;60438;-48
2023/07/22 06:40:08;;;;;;;2.40;0.50;;;;;;;17.51;100.00;99699.94;105284;1257;60776;-49
2023/07/22 06:42:35;;;;;;;1.00;0.70;;;;;;;17.51;100.00;99696.30;105326;1261;73931;-48
2023/07/22 06:45:04;;;;;;;0.90;0.60;;;;;;;17.51;100.00;99697.00;105192;1260;67961;-47
2023/07/22 06:47:31;;;;;;;1.10;0.70;;;;;;;17.51;100.00;99696.52;107639;1257;72995;-48
2023/07/22 06:49:58;;;;;;;1.00;0.60;;;;;;;17.49;100.00;99694.98;105002;1254;62183;-48
2023/07/22 06:52:26;;;;;;;1.30;0.80;;;;;;;17.48;100.00;99697.08;104661;1255;62392;-48
2023/07/22 06:54:53;;;;;;;3.50;0.60;;;;;;;17.48;100.00;99701.98;104966;1260;73842;-47
2023/07/22 06:57:21;;;;;;;1.00;0.70;;;;;;;17.48;100.00;99703.59;104727;1254;68015;-48
2023/07/22 06:59:50;;;;;;;1.40;0.80;;;;;;;17.48;100.00;99701.06;104690;1260;72671;-47
2023/07/22 07:02:18;;;;;;;1.00;0.80;;;;;;;17.48;100.00;99696.54;108903;1254;60713;-47
2023/07/22 07:04:45;;;;;;;1.20;0.80;;;;;;;17.49;100.00;99695.77;109069;1254;59714;-48
2023/07/22 07:07:13;;;;;;;1.20;0.80;;;;;;;17.49;100.00;99696.79;108741;1257;72659;-48
2023/07/22 07:09:40;;;;;;;3.70;0.80;;;;;;;17.49;100.00;99698.85;108952;1254;67514;-48
2023/07/22 07:12:08;;;;;;;1.10;0.90;;;;;;;17.47;100.00;99695.48;108827;1254;73104;-50
2023/07/22 07:14:35;;;;;;;1.20;0.90;;;;;;;17.48;100.00;99690.20;108723;1254;60402;-50
2023/07/22 07:17:03;;;;;;;3.10;0.80;;;;;;;17.47;100.00;99691.33;108841;1254;58810;-47
2023/07/22 07:19:30;;;;;;;3.00;0.80;;;;;;;17.48;100.00;99691.27;108963;1254;74313;-48
2023/07/22 07:21:58;;;;;;;1.00;0.60;;;;;;;17.48;100.00;99687.63;108851;1258;67169;-48
2023/07/22 07:24:27;;;;;;;1.10;0.50;;;;;;;17.49;100.00;99683.77;108913;1254;73722;-48
2023/07/22 07:26:54;;;;;;;1.40;0.80;;;;;;;17.50;100.00;99683.17;108905;1254;60652;-48
2023/07/22 07:29:21;;;;;;;1.60;1.00;;;;;;;17.49;100.00;99683.23;109046;1254;60076;-49
2023/07/22 07:32:09;;;;;;;4.10;0.70;;;;;;;17.48;100.00;99678.03;105641;1260;73891;-47
2023/07/22 07:34:36;;;;;;;0.70;0.60;;;;;;;17.48;100.00;99673.52;105297;1255;68167;-48
2023/07/22 07:37:05;;;;;;;0.50;0.50;;;;;;;17.48;100.00;99677.67;105178;1258;71489;-47
2023/07/22 07:39:32;;;;;;;1.90;0.70;;;;;;;17.47;100.00;99673.36;107473;1253;61708;-47
2023/07/22 07:41:59;;;;;;;1.40;0.60;;;;;;;17.47;100.00;99669.06;105100;1263;60332;-48
2023/07/22 07:44:27;;;;;;;0.80;0.40;;;;;;;17.47;100.00;99667.03;105117;1270;74255;-47
2023/07/22 07:46:54;;;;;;;2.20;0.60;;;;;;;17.47;100.00;99664.66;105031;1259;67999;-47
2023/07/22 07:49:22;;;;;;;1.30;0.60;;;;;;;17.46;100.00;99659.29;105145;1260;74567;-47
2023/07/22 07:51:49;;;;;;;0.70;0.60;;;;;;;17.44;100.00;99658.00;105167;1254;61695;-46
2023/07/22 07:54:16;;;;;;;1.20;0.60;;;;;;;17.43;100.00;99651.38;105128;1255;60342;-46
2023/07/22 07:56:44;;;;;;;1.30;0.50;;;;;;;17.42;100.00;99647.48;105279;1254;72613;-46
2023/07/22 07:59:11;;;;;;;0.60;0.50;;;;;;;17.42;100.00;99642.44;105145;1260;66434;-47
2023/07/22 08:01:41;;;;;;;0.50;0.40;;;;;;;17.40;100.00;99647.45;105319;1261;71773;-46
2023/07/22 08:04:09;;;;;;;5.40;0.50;;;;;;;17.40;100.00;99647.61;105979;1260;60424;-48
2023/07/22 08:06:37;;;;;;;1.00;0.60;;;;;;;17.42;100.00;99643.16;106118;1254;60662;-48
2023/07/22 08:09:05;;;;;;;2.50;0.90;;;;;;;17.44;100.00;99641.55;105399;1255;73912;-48
2023/07/22 08:11:33;;;;;;;2.90;0.60;;;;;;;17.46;100.00;99639.15;105690;1260;67185;-47
2023/07/22 08:14:01;;;;;;;3.80;0.70;;;;;;;17.48;100.00;99639.71;105562;1254;72804;-46
2023/07/22 08:16:29;;;;;;;1.00;0.50;;;;;;;17.49;100.00;99637.34;105999;1254;61738;-46
2023/07/22 08:18:57;;;;;;;2.20;0.60;;;;;;;17.48;100.00;99630.48;108564;1254;59106;-48
2023/07/22 08:21:24;;;;;;;1.20;0.50;;;;;;;17.47;100.00;99630.05;105130;1254;73896;-47
2023/07/22 08:23:52;;;;;;;0.90;0.60;;;;;;;17.45;100.00;99630.05;105303;1259;66318;-48
2023/07/22 08:26:21;;;;;;;1.40;0.50;;;;;;;17.41;100.00;99627.98;108980;1254;72564;-48
2023/07/22 08:28:49;;;;;;;0.70;0.50;;;;;;;17.38;100.00;99628.17;105729;1259;61147;-47
2023/07/22 08:31:16;;;;;;;0.80;0.60;;;;;;;17.35;100.00;99627.85;105218;1254;246965;-47
2023/07/22 08:35:40;;;;;;;3.40;1.30;;;;;;;17.31;100.00;99632.91;102277;1294;601269;-46
2023/07/22 08:38:08;;;;;;;0.50;0.40;;;;;;;17.26;100.00;99634.55;104680;1270;60421;-47
2023/07/22 08:40:36;;;;;;;3.30;0.50;;;;;;;17.23;100.00;99629.75;104584;1270;59319;-47
2023/07/22 08:43:04;;;;;;;1.60;0.60;;;;;;;17.20;100.00;99627.60;104617;1267;71509;-47
2023/07/22 08:45:34;;;;;;;0.50;0.50;;;;;;;17.17;100.00;99623.47;105130;1266;66456;-46
2023/07/22 08:48:04;;;;;;;3.50;0.50;;;;;;;17.14;100.00;99620.31;104622;1266;71394;-47
2023/07/22 08:50:44;;;;;;;2.20;0.50;;;;;;;17.12;100.00;99618.80;104315;1266;60765;-47
2023/07/22 08:53:14;;;;;;;0.70;0.50;;;;;;;17.14;100.00;99610.90;104074;1263;60073;-49
2023/07/22 08:55:42;;;;;;;0.80;0.50;;;;;;;17.14;100.00;99608.70;103910;1266;71012;-48
2023/07/22 08:58:09;;;;;;;0.80;0.50;;;;;;;17.12;100.00;99612.64;104360;1266;66341;-47
2023/07/22 09:00:38;;;;;;;0.70;0.60;;;;;;;17.12;100.00;99609.23;104420;1264;72449;-47
2023/07/22 09:03:05;;;;;;;0.50;0.50;;;;;;;17.11;100.00;99603.27;104084;1269;61716;-47
2023/07/22 09:05:33;;;;;;;12.30;0.80;;;;;;;17.10;100.00;99596.13;104106;1264;59653;-47
2023/07/22 09:08:02;;;;;;;1.00;0.50;;;;;;;17.10;100.00;99593.74;104345;1268;73076;-49
2023/07/22 09:10:29;;;;;;;0.80;0.60;;;;;;;17.11;100.00;99589.38;104394;1266;69285;-48
2023/07/22 09:12:57;;;;;;;0.70;0.50;;;;;;;17.11;100.00;99594.39;104037;1266;71873;-48
2023/07/22 09:15:25;;;;;;;0.70;0.60;;;;;;;17.12;100.00;99589.08;104208;1266;61321;-47
2023/07/22 09:17:52;;;;;;;0.80;0.80;;;;;;;17.11;100.00;99579.55;105134;1259;60125;-46
2023/07/22 09:20:21;;;;;;;0.60;0.40;;;;;;;17.08;100.00;99571.79;104990;1264;75046;-47
2023/07/22 09:22:50;;;;;;;0.80;0.50;;;;;;;17.06;100.00;99562.72;105116;1259;67771;-47
2023/07/22 09:25:33;;;;;;;1.40;0.50;;;;;;;17.05;100.00;99561.36;104636;1261;72676;-47
2023/07/22 09:28:01;;;;;;;1.00;0.50;;;;;;;17.02;100.00;99559.16;104610;1262;61745;-46
2023/07/22 09:30:34;;;;;;;1.50;0.50;;;;;;;17.00;100.00;99560.42;104666;1257;59974;-48
2023/07/22 09:33:03;;;;;;;0.70;0.50;;;;;;;16.96;100.00;99555.84;105321;1261;73446;-48
2023/07/22 09:35:51;;;;;;;1.40;0.40;;;;;;;16.93;100.00;99548.66;106589;1257;67884;-48
2023/07/22 09:38:27;;;;;;;0.40;0.40;;;;;;;16.88;100.00;99540.71;105244;1263;70924;-47
2023/07/22 09:40:55;;;;;;;0.40;0.40;;;;;;;16.83;100.00;99531.16;105167;1259;62277;-48
2023/07/22 09:43:22;;;;;;;0.80;0.50;;;;;;;16.79;100.00;99531.14;105064;1262;60012;-49
2023/07/22 09:45:50;;;;;;;1.50;0.40;;;;;;;16.75;100.00;99537.27;105106;1262;70787;-47
2023/07/22 09:48:17;;;;;;;0.50;0.30;;;;;;;16.71;100.00;99541.71;105167;1259;67927;-47
2023/07/22 09:50:45;;;;;;;1.30;0.40;;;;;;;16.69;100.00;99539.72;105117;1262;72516;-46
2023/07/22 09:53:15;;;;;;;3.10;0.50;;;;;;;16.66;100.00;99532.34;105067;1262;61633;-46
2023/07/22 09:55:44;;;;;;;0.50;0.40;;;;;;;16.63;100.00;99529.78;108722;1257;58755;-47
2023/07/22 09:58:14;;;;;;;0.70;0.50;;;;;;;16.63;100.00;99529.80;106848;1258;72968;-47
2023/07/22 10:00:42;;;;;;;0.40;0.40;;;;;;;16.60;100.00;99526.58;108798;1257;68080;-48
2023/07/22 10:03:10;;;;;;;0.50;0.40;;;;;;;16.57;100.00;99525.35;108631;1257;72616;-47
2023/07/22 10:05:41;;;;;;;2.10;0.30;;;;;;;16.55;100.00;99525.66;105115;1257;61655;-46
2023/07/22 10:08:08;;;;;;;0.40;0.40;;;;;;;16.54;100.00;99520.66;104930;1257;60240;-46
2023/07/22 10:10:38;;;;;;;0.40;0.40;;;;;;;16.55;100.00;99520.77;104876;1265;72339;-45
2023/07/22 10:13:05;;;;;;;0.40;0.40;;;;;;;16.56;100.00;99519.98;108736;1256;68379;-48
2023/07/22 10:15:34;;;;;;;0.80;0.30;;;;;;;16.56;100.00;99514.36;108651;1256;74506;-47
2023/07/22 10:18:02;;;;;;;0.40;0.40;;;;;;;16.56;100.00;99511.14;108635;1256;61596;-48
2023/07/22 10:20:29;;;;;;;2.80;0.40;;;;;;;16.55;100.00;99504.10;108742;1257;57817;-47
2023/07/22 10:22:57;;;;;;;3.10;0.60;;;;;;;16.56;100.00;99500.03;108553;1257;71943;-47
2023/07/22 10:25:24;;;;;;;1.30;0.50;;;;;;;16.58;100.00;99498.09;108555;1257;66582;-47
2023/07/22 10:27:52;;;;;;;1.70;0.30;;;;;;;16.60;100.00;99500.66;108532;1258;71406;-48
2023/07/22 10:30:19;;;;;;;0.70;0.30;;;;;;;16.61;100.00;99496.80;106843;1257;62118;-46
2023/07/22 10:32:48;;;;;;;2.70;0.80;;;;;;;16.61;100.00;99488.26;104680;1258;60443;-46
2023/07/22 10:35:34;;;;;;;1.50;0.40;;;;;;;16.60;100.00;99488.65;108629;1258;72489;-47
2023/07/22 10:38:15;;;;;;;0.80;0.40;;;;;;;16.59;100.00;99500.00;105085;1262;67958;-47
2023/07/22 10:40:53;;;;;;;0.50;0.40;;;;;;;16.59;100.00;99502.89;106827;1258;71559;-47
2023/07/22 10:43:24;;;;;;;0.60;0.60;;;;;;;16.58;100.00;99494.97;105076;1262;61139;-46
2023/07/22 10:45:56;;;;;;;0.40;0.40;;;;;;;16.59;100.00;99487.11;105038;1259;60008;-46
2023/07/22 10:48:28;;;;;;;0.30;0.30;;;;;;;16.60;100.00;99482.72;108790;1256;76260;-48
2023/07/22 10:50:58;;;;;;;0.40;0.40;;;;;;;16.60;100.00;99468.76;107553;1257;67548;-47
2023/07/22 10:53:26;;;;;;;0.40;0.40;;;;;;;16.62;100.00;99472.63;106382;1258;70416;-46
2023/07/22 10:56:08;;;;;;;0.30;0.30;;;;;;;16.63;100.00;99484.27;104867;1258;60592;-45
2023/07/22 10:58:48;;;;;;;0.40;0.30;;;;;;;16.65;100.00;99475.17;104958;1262;59819;-46
2023/07/22 11:01:28;;;;;;;0.30;0.30;;;;;;;16.64;100.00;99474.27;104642;1257;73074;-46
2023/07/22 11:04:02;;;;;;;0.30;0.20;;;;;;;16.65;100.00;99478.04;104981;1262;68090;-46
2023/07/22 11:06:30;;;;;;;0.50;0.30;;;;;;;16.66;100.00;99478.86;104926;1262;72431;-45
2023/07/22 11:08:57;;;;;;;1.30;0.50;;;;;;;16.67;100.00;99477.14;105043;1262;61703;-46
2023/07/22 11:11:39;;;;;;;0.30;0.30;;;;;;;16.69;100.00;99476.81;105090;1260;60666;-44
2023/07/22 11:14:18;;;;;;;1.20;0.40;;;;;;;16.71;100.00;99476.46;105063;1256;71453;-46
2023/07/22 11:16:46;;;;;;;0.20;0.20;;;;;;;16.72;100.00;99475.11;105726;1257;68239;-45
2023/07/22 11:19:15;;;;;;;0.30;0.30;;;;;;;16.72;100.00;99470.27;105385;1262;72147;-46
2023/07/22 11:21:43;;;;;;;2.00;0.30;;;;;;;16.73;100.00;99470.39;105096;1260;61725;-47
2023/07/22 11:24:10;;;;;;;0.60;0.40;;;;;;;16.73;100.00;99463.45;104934;1264;59733;-45